sensor_id;sensor_type;location;lat;lon;timestamp;temperature;humidity
66920;DHT22;53831;52.090;17.026;2023-04-10T00:00:47;5.20;99.90
66920;DHT22;53831;52.090;17.026;2023-04-10T00:05:53;4.90;99.90
66920;DHT22;53831;52.090;17.026;2023-04-10T00:10:54;4.80;99.90
66920;DHT22;53831;52.090;17.026;2023-04-10T00:15:55;4.90;99.90
66920;DHT22;53831;52.090;17.026;2023-04-10T00:20:57;5.00;99.90
66920;DHT22;53831;52.090;17.026;2023-04-10T00:27:19;5.20;99.90
66920;DHT22;53831;52.090;17.026;2023-04-10T00:33:40;5.00;99.90
66920;DHT22;53831;52.090;17.026;2023-04-10T00:40:03;4.50;99.90
66920;DHT22;53831;52.090;17.026;2023-04-10T00:46:24;4.20;99.90
66920;DHT22;53831;52.090;17.026;2023-04-10T00:52:46;4.00;99.90
66920;DHT22;53831;52.090;17.026;2023-04-10T00:59:07;3.70;99.90
66920;DHT22;53831;52.090;17.026;2023-04-10T01:05:31;3.60;99.90
66920;DHT22;53831;52.090;17.026;2023-04-10T01:18:33;3.30;99.90
66920;DHT22;53831;52.090;17.026;2023-04-10T01:25:20;3.10;99.90
66920;DHT22;53831;52.090;17.026;2023-04-10T01:31:41;3.00;99.90
66920;DHT22;53831;52.090;17.026;2023-04-10T01:38:00;2.90;99.90
66920;DHT22;53831;52.090;17.026;2023-04-10T01:44:22;2.90;99.90
66920;DHT22;53831;52.090;17.026;2023-04-10T01:50:46;2.80;99.90
66920;DHT22;53831;52.090;17.026;2023-04-10T01:57:05;2.70;99.90
66920;DHT22;53831;52.090;17.026;2023-04-10T02:03:26;2.60;99.90
66920;DHT22;53831;52.090;17.026;2023-04-10T02:09:59;2.60;99.90
66920;DHT22;53831;52.090;17.026;2023-04-10T02:16:19;2.50;99.90
66920;DHT22;53831;52.090;17.026;2023-04-10T02:22:41;2.30;99.90
66920;DHT22;53831;52.090;17.026;2023-04-10T02:29:02;2.20;99.90
66920;DHT22;53831;52.090;17.026;2023-04-10T02:35:24;2.30;99.90
66920;DHT22;53831;52.090;17.026;2023-04-10T02:41:46;2.30;99.90
66920;DHT22;53831;52.090;17.026;2023-04-10T02:48:07;2.50;99.90
66920;DHT22;53831;52.090;17.026;2023-04-10T02:54:29;2.50;99.90
66920;DHT22;53831;52.090;17.026;2023-04-10T03:00:51;2.70;99.90
66920;DHT22;53831;52.090;17.026;2023-04-10T03:07:12;2.90;99.90
66920;DHT22;53831;52.090;17.026;2023-04-10T03:13:34;2.90;99.90
66920;DHT22;53831;52.090;17.026;2023-04-10T03:19:56;3.00;99.90
66920;DHT22;53831;52.090;17.026;2023-04-10T03:26:18;2.90;99.90
66920;DHT22;53831;52.090;17.026;2023-04-10T03:32:39;2.90;99.90
66920;DHT22;53831;52.090;17.026;2023-04-10T03:39:01;3.10;99.90
66920;DHT22;53831;52.090;17.026;2023-04-10T03:45:23;3.20;99.90
66920;DHT22;53831;52.090;17.026;2023-04-10T03:51:44;3.20;99.90
66920;DHT22;53831;52.090;17.026;2023-04-10T03:58:06;3.40;99.90
66920;DHT22;53831;52.090;17.026;2023-04-10T04:04:28;3.50;99.90
66920;DHT22;53831;52.090;17.026;2023-04-10T04:10:52;3.50;99.90
66920;DHT22;53831;52.090;17.026;2023-04-10T04:17:12;3.50;99.90
66920;DHT22;53831;52.090;17.026;2023-04-10T04:23:34;3.70;99.90
66920;DHT22;53831;52.090;17.026;2023-04-10T04:29:27;3.80;99.90
66920;DHT22;53831;52.090;17.026;2023-04-10T04:34:46;4.00;99.90
66920;DHT22;53831;52.090;17.026;2023-04-10T04:39:56;4.10;99.90
66920;DHT22;53831;52.090;17.026;2023-04-10T04:44:57;4.30;99.90
66920;DHT22;53831;52.090;17.026;2023-04-10T04:50:16;4.30;99.90
66920;DHT22;53831;52.090;17.026;2023-04-10T04:55:29;4.50;99.90
66920;DHT22;53831;52.090;17.026;2023-04-10T05:00:38;4.60;99.90
66920;DHT22;53831;52.090;17.026;2023-04-10T05:05:58;4.70;99.90
66920;DHT22;53831;52.090;17.026;2023-04-10T05:11:18;4.70;99.90
66920;DHT22;53831;52.090;17.026;2023-04-10T05:16:29;4.70;99.90
66920;DHT22;53831;52.090;17.026;2023-04-10T05:21:40;4.80;99.90
66920;DHT22;53831;52.090;17.026;2023-04-10T05:27:16;4.90;99.90
66920;DHT22;53831;52.090;17.026;2023-04-10T05:32:37;5.00;99.90
66920;DHT22;53831;52.090;17.026;2023-04-10T05:38:01;5.10;99.90
66920;DHT22;53831;52.090;17.026;2023-04-10T05:43:27;5.30;99.90
66920;DHT22;53831;52.090;17.026;2023-04-10T05:48:46;5.40;99.90
66920;DHT22;53831;52.090;17.026;2023-04-10T05:54:07;5.50;99.90
66920;DHT22;53831;52.090;17.026;2023-04-10T05:59:21;5.70;99.90
66920;DHT22;53831;52.090;17.026;2023-04-10T06:04:47;5.60;99.90
66920;DHT22;53831;52.090;17.026;2023-04-10T06:09:48;5.50;99.90
66920;DHT22;53831;52.090;17.026;2023-04-10T06:14:49;5.60;99.90
66920;DHT22;53831;52.090;17.026;2023-04-10T06:19:52;5.60;99.90
66920;DHT22;53831;52.090;17.026;2023-04-10T06:24:53;5.80;99.90
66920;DHT22;53831;52.090;17.026;2023-04-10T06:29:54;5.90;99.90
66920;DHT22;53831;52.090;17.026;2023-04-10T06:34:56;6.20;99.90
66920;DHT22;53831;52.090;17.026;2023-04-10T06:40:04;6.40;99.90
66920;DHT22;53831;52.090;17.026;2023-04-10T06:45:07;6.60;99.90
66920;DHT22;53831;52.090;17.026;2023-04-10T06:50:08;6.60;99.90
66920;DHT22;53831;52.090;17.026;2023-04-10T06:55:09;6.70;99.90
66920;DHT22;53831;52.090;17.026;2023-04-10T07:00:12;6.90;99.90
66920;DHT22;53831;52.090;17.026;2023-04-10T07:05:13;7.20;99.90
66920;DHT22;53831;52.090;17.026;2023-04-10T07:10:15;7.30;99.90
66920;DHT22;53831;52.090;17.026;2023-04-10T07:15:16;7.30;99.90
66920;DHT22;53831;52.090;17.026;2023-04-10T07:20:16;7.60;99.90
66920;DHT22;53831;52.090;17.026;2023-04-10T07:25:17;7.80;99.90
66920;DHT22;53831;52.090;17.026;2023-04-10T07:30:18;8.00;99.90
66920;DHT22;53831;52.090;17.026;2023-04-10T07:35:19;7.80;99.90
66920;DHT22;53831;52.090;17.026;2023-04-10T07:40:20;8.10;99.90
66920;DHT22;53831;52.090;17.026;2023-04-10T07:45:21;8.00;99.90
66920;DHT22;53831;52.090;17.026;2023-04-10T07:50:21;8.30;99.90
66920;DHT22;53831;52.090;17.026;2023-04-10T07:55:22;8.30;99.90
66920;DHT22;53831;52.090;17.026;2023-04-10T08:00:23;8.20;99.90
66920;DHT22;53831;52.090;17.026;2023-04-10T08:05:23;8.40;99.90
66920;DHT22;53831;52.090;17.026;2023-04-10T08:10:24;8.80;99.90
66920;DHT22;53831;52.090;17.026;2023-04-10T08:15:25;8.70;99.90
66920;DHT22;53831;52.090;17.026;2023-04-10T08:20:26;9.30;99.90
66920;DHT22;53831;52.090;17.026;2023-04-10T08:25:27;9.30;99.90
66920;DHT22;53831;52.090;17.026;2023-04-10T08:30:28;9.60;99.90
66920;DHT22;53831;52.090;17.026;2023-04-10T08:35:29;10.00;99.90
66920;DHT22;53831;52.090;17.026;2023-04-10T08:40:29;10.10;99.90
66920;DHT22;53831;52.090;17.026;2023-04-10T08:45:30;10.40;99.90
66920;DHT22;53831;52.090;17.026;2023-04-10T08:50:32;10.30;99.90
66920;DHT22;53831;52.090;17.026;2023-04-10T08:55:37;10.20;99.90
66920;DHT22;53831;52.090;17.026;2023-04-10T09:00:39;10.30;99.90
66920;DHT22;53831;52.090;17.026;2023-04-10T09:05:40;10.30;99.90
66920;DHT22;53831;52.090;17.026;2023-04-10T09:10:40;11.00;99.90
66920;DHT22;53831;52.090;17.026;2023-04-10T09:15:54;11.40;99.90
66920;DHT22;53831;52.090;17.026;2023-04-10T09:21:05;11.80;99.90
66920;DHT22;53831;52.090;17.026;2023-04-10T09:36:34;11.60;99.90
66920;DHT22;53831;52.090;17.026;2023-04-10T09:41:46;12.00;99.90
66920;DHT22;53831;52.090;17.026;2023-04-10T09:46:51;12.30;99.90
66920;DHT22;53831;52.090;17.026;2023-04-10T09:51:53;11.80;99.90
66920;DHT22;53831;52.090;17.026;2023-04-10T09:56:54;11.80;99.90
66920;DHT22;53831;52.090;17.026;2023-04-10T10:03:16;11.90;99.90
66920;DHT22;53831;52.090;17.026;2023-04-10T10:08:21;11.90;99.90
66920;DHT22;53831;52.090;17.026;2023-04-10T10:13:25;11.80;99.90
66920;DHT22;53831;52.090;17.026;2023-04-10T10:18:43;11.90;99.90
66920;DHT22;53831;52.090;17.026;2023-04-10T10:23:53;12.60;99.90
66920;DHT22;53831;52.090;17.026;2023-04-10T10:29:13;12.70;99.90
66920;DHT22;53831;52.090;17.026;2023-04-10T10:34:17;13.20;99.90
66920;DHT22;53831;52.090;17.026;2023-04-10T10:39:26;13.10;99.90
66920;DHT22;53831;52.090;17.026;2023-04-10T10:44:59;12.80;99.90
66920;DHT22;53831;52.090;17.026;2023-04-10T10:50:12;12.50;99.90
66920;DHT22;53831;52.090;17.026;2023-04-10T11:11:57;13.50;99.90
66920;DHT22;53831;52.090;17.026;2023-04-10T11:17:01;13.20;99.90
66920;DHT22;53831;52.090;17.026;2023-04-10T11:22:02;13.10;99.90
66920;DHT22;53831;52.090;17.026;2023-04-10T11:27:03;13.00;99.90
66920;DHT22;53831;52.090;17.026;2023-04-10T11:32:07;13.90;99.90
66920;DHT22;53831;52.090;17.026;2023-04-10T11:37:09;14.10;99.90
66920;DHT22;53831;52.090;17.026;2023-04-10T11:42:22;14.20;99.90
66920;DHT22;53831;52.090;17.026;2023-04-10T11:47:23;14.00;99.90
66920;DHT22;53831;52.090;17.026;2023-04-10T11:52:24;14.30;99.90
66920;DHT22;53831;52.090;17.026;2023-04-10T11:57:32;14.30;99.90
66920;DHT22;53831;52.090;17.026;2023-04-10T12:02:34;14.10;99.90
66920;DHT22;53831;52.090;17.026;2023-04-10T12:07:35;14.20;99.90
66920;DHT22;53831;52.090;17.026;2023-04-10T12:12:36;14.80;99.90
66920;DHT22;53831;52.090;17.026;2023-04-10T12:17:37;14.80;99.90
66920;DHT22;53831;52.090;17.026;2023-04-10T12:22:38;14.70;99.90
66920;DHT22;53831;52.090;17.026;2023-04-10T12:27:39;15.20;99.90
66920;DHT22;53831;52.090;17.026;2023-04-10T12:32:49;15.80;99.90
66920;DHT22;53831;52.090;17.026;2023-04-10T12:37:54;16.00;99.90
66920;DHT22;53831;52.090;17.026;2023-04-10T12:42:55;15.80;99.90
66920;DHT22;53831;52.090;17.026;2023-04-10T12:47:56;16.10;99.90
66920;DHT22;53831;52.090;17.026;2023-04-10T12:53:03;16.30;99.90
66920;DHT22;53831;52.090;17.026;2023-04-10T12:58:16;16.40;99.90
66920;DHT22;53831;52.090;17.026;2023-04-10T13:03:19;16.80;99.90
66920;DHT22;53831;52.090;17.026;2023-04-10T13:08:21;16.80;99.90
66920;DHT22;53831;52.090;17.026;2023-04-10T13:13:22;16.70;99.90
66920;DHT22;53831;52.090;17.026;2023-04-10T13:18:23;17.40;99.90
66920;DHT22;53831;52.090;17.026;2023-04-10T13:23:24;17.90;99.90
66920;DHT22;53831;52.090;17.026;2023-04-10T13:28:25;18.40;99.90
66920;DHT22;53831;52.090;17.026;2023-04-10T13:33:25;21.00;99.90
66920;DHT22;53831;52.090;17.026;2023-04-10T13:38:26;24.50;99.90
66920;DHT22;53831;52.090;17.026;2023-04-10T13:43:27;27.10;99.90
66920;DHT22;53831;52.090;17.026;2023-04-10T13:49:49;28.30;99.90
66920;DHT22;53831;52.090;17.026;2023-04-10T13:55:47;30.10;99.90
66920;DHT22;53831;52.090;17.026;2023-04-10T14:00:49;30.70;99.90
66920;DHT22;53831;52.090;17.026;2023-04-10T14:05:50;29.90;99.90
66920;DHT22;53831;52.090;17.026;2023-04-10T14:10:52;29.50;99.90
66920;DHT22;53831;52.090;17.026;2023-04-10T14:15:53;30.50;99.90
66920;DHT22;53831;52.090;17.026;2023-04-10T14:20:54;31.60;99.90
66920;DHT22;53831;52.090;17.026;2023-04-10T14:25:55;31.80;99.90
66920;DHT22;53831;52.090;17.026;2023-04-10T14:30:56;30.50;99.90
66920;DHT22;53831;52.090;17.026;2023-04-10T14:35:57;31.60;99.90
66920;DHT22;53831;52.090;17.026;2023-04-10T14:40:58;32.30;99.90
66920;DHT22;53831;52.090;17.026;2023-04-10T14:46:34;33.80;99.90
66920;DHT22;53831;52.090;17.026;2023-04-10T14:51:35;33.30;99.90
66920;DHT22;53831;52.090;17.026;2023-04-10T14:56:39;33.00;99.90
66920;DHT22;53831;52.090;17.026;2023-04-10T15:01:40;33.80;99.90
66920;DHT22;53831;52.090;17.026;2023-04-10T15:06:41;33.80;99.90
66920;DHT22;53831;52.090;17.026;2023-04-10T15:11:42;31.20;99.90
66920;DHT22;53831;52.090;17.026;2023-04-10T15:16:42;32.70;99.90
66920;DHT22;53831;52.090;17.026;2023-04-10T15:21:43;31.70;99.90
66920;DHT22;53831;52.090;17.026;2023-04-10T15:26:44;33.40;99.90
66920;DHT22;53831;52.090;17.026;2023-04-10T15:31:45;33.20;99.90
66920;DHT22;53831;52.090;17.026;2023-04-10T15:36:46;33.20;99.90
66920;DHT22;53831;52.090;17.026;2023-04-10T15:41:46;32.70;99.90
66920;DHT22;53831;52.090;17.026;2023-04-10T15:46:49;31.20;99.90
66920;DHT22;53831;52.090;17.026;2023-04-10T15:51:50;29.90;99.90
66920;DHT22;53831;52.090;17.026;2023-04-10T15:56:54;28.70;99.90
66920;DHT22;53831;52.090;17.026;2023-04-10T16:01:55;26.90;99.90
66920;DHT22;53831;52.090;17.026;2023-04-10T16:06:56;28.90;99.90
66920;DHT22;53831;52.090;17.026;2023-04-10T16:11:57;28.90;99.90
66920;DHT22;53831;52.090;17.026;2023-04-10T16:16:59;28.40;99.90
66920;DHT22;53831;52.090;17.026;2023-04-10T16:22:00;28.10;99.90
66920;DHT22;53831;52.090;17.026;2023-04-10T16:27:01;28.20;99.90
66920;DHT22;53831;52.090;17.026;2023-04-10T16:32:02;25.60;99.90
66920;DHT22;53831;52.090;17.026;2023-04-10T16:37:03;22.80;99.90
66920;DHT22;53831;52.090;17.026;2023-04-10T16:43:25;20.70;99.90
66920;DHT22;53831;52.090;17.026;2023-04-10T16:49:49;18.70;99.90
66920;DHT22;53831;52.090;17.026;2023-04-10T16:56:10;17.00;99.90
66920;DHT22;53831;52.090;17.026;2023-04-10T17:02:32;16.00;99.90
66920;DHT22;53831;52.090;17.026;2023-04-10T17:08:54;15.10;99.90
66920;DHT22;53831;52.090;17.026;2023-04-10T17:13:54;14.80;99.90
66920;DHT22;53831;52.090;17.026;2023-04-10T17:18:55;14.50;99.90
66920;DHT22;53831;52.090;17.026;2023-04-10T17:23:56;14.00;99.90
66920;DHT22;53831;52.090;17.026;2023-04-10T17:28:57;13.50;99.90
66920;DHT22;53831;52.090;17.026;2023-04-10T17:33:58;13.00;99.90
66920;DHT22;53831;52.090;17.026;2023-04-10T17:40:20;12.70;99.90
66920;DHT22;53831;52.090;17.026;2023-04-10T17:46:41;12.20;99.90
66920;DHT22;53831;52.090;17.026;2023-04-10T17:53:03;11.70;99.90
66920;DHT22;53831;52.090;17.026;2023-04-10T17:59:28;11.40;99.90
66920;DHT22;53831;52.090;17.026;2023-04-10T18:05:47;11.10;99.90
66920;DHT22;53831;52.090;17.026;2023-04-10T18:10:47;10.70;99.90
66920;DHT22;53831;52.090;17.026;2023-04-10T18:17:09;10.40;99.90
66920;DHT22;53831;52.090;17.026;2023-04-10T18:23:31;10.00;99.90
66920;DHT22;53831;52.090;17.026;2023-04-10T18:29:52;9.60;99.90
66920;DHT22;53831;52.090;17.026;2023-04-10T18:36:17;9.30;99.90
66920;DHT22;53831;52.090;17.026;2023-04-10T18:41:35;9.00;99.90
66920;DHT22;53831;52.090;17.026;2023-04-10T18:46:39;8.80;99.90
66920;DHT22;53831;52.090;17.026;2023-04-10T18:51:40;8.60;99.90
66920;DHT22;53831;52.090;17.026;2023-04-10T18:56:41;8.40;99.90
66920;DHT22;53831;52.090;17.026;2023-04-10T19:01:41;8.30;99.90
66920;DHT22;53831;52.090;17.026;2023-04-10T19:06:42;8.10;99.90
66920;DHT22;53831;52.090;17.026;2023-04-10T19:12:04;8.00;99.90
66920;DHT22;53831;52.090;17.026;2023-04-10T19:18:26;7.80;99.90
66920;DHT22;53831;52.090;17.026;2023-04-10T19:24:47;7.70;99.90
66920;DHT22;53831;52.090;17.026;2023-04-10T19:31:09;7.60;99.90
66920;DHT22;53831;52.090;17.026;2023-04-10T19:37:31;7.50;99.90
66920;DHT22;53831;52.090;17.026;2023-04-10T19:43:53;7.40;99.90
66920;DHT22;53831;52.090;17.026;2023-04-10T19:50:14;7.30;99.90
66920;DHT22;53831;52.090;17.026;2023-04-10T19:56:36;7.30;99.90
66920;DHT22;53831;52.090;17.026;2023-04-10T20:02:58;7.20;99.90
66920;DHT22;53831;52.090;17.026;2023-04-10T20:09:20;7.10;99.90
66920;DHT22;53831;52.090;17.026;2023-04-10T20:15:42;6.90;99.90
66920;DHT22;53831;52.090;17.026;2023-04-10T20:22:03;6.80;99.90
66920;DHT22;53831;52.090;17.026;2023-04-10T20:28:25;6.70;99.90
66920;DHT22;53831;52.090;17.026;2023-04-10T20:34:47;6.60;99.90
66920;DHT22;53831;52.090;17.026;2023-04-10T20:41:08;6.60;99.90
66920;DHT22;53831;52.090;17.026;2023-04-10T20:47:30;6.40;99.90
66920;DHT22;53831;52.090;17.026;2023-04-10T20:53:52;6.40;99.90
66920;DHT22;53831;52.090;17.026;2023-04-10T21:00:14;6.20;99.90
66920;DHT22;53831;52.090;17.026;2023-04-10T21:05:24;6.00;99.90
66920;DHT22;53831;52.090;17.026;2023-04-10T21:11:45;6.00;99.90
66920;DHT22;53831;52.090;17.026;2023-04-10T21:18:07;5.90;99.90
66920;DHT22;53831;52.090;17.026;2023-04-10T21:24:29;5.80;99.90
66920;DHT22;53831;52.090;17.026;2023-04-10T21:30:50;5.80;99.90
66920;DHT22;53831;52.090;17.026;2023-04-10T21:37:12;5.80;99.90
66920;DHT22;53831;52.090;17.026;2023-04-10T21:43:34;5.70;99.90
66920;DHT22;53831;52.090;17.026;2023-04-10T21:49:55;5.70;99.90
66920;DHT22;53831;52.090;17.026;2023-04-10T21:55:56;5.50;99.90
66920;DHT22;53831;52.090;17.026;2023-04-10T22:00:57;5.40;99.90
66920;DHT22;53831;52.090;17.026;2023-04-10T22:05:59;5.40;99.90
66920;DHT22;53831;52.090;17.026;2023-04-10T22:11:00;5.30;99.90
66920;DHT22;53831;52.090;17.026;2023-04-10T22:16:01;5.30;99.90
66920;DHT22;53831;52.090;17.026;2023-04-10T22:21:02;5.30;99.90
66920;DHT22;53831;52.090;17.026;2023-04-10T22:26:03;5.30;99.90
66920;DHT22;53831;52.090;17.026;2023-04-10T22:31:04;5.30;99.90
66920;DHT22;53831;52.090;17.026;2023-04-10T22:36:05;5.20;99.90
66920;DHT22;53831;52.090;17.026;2023-04-10T22:41:06;5.30;99.90
66920;DHT22;53831;52.090;17.026;2023-04-10T22:46:06;5.30;99.90
66920;DHT22;53831;52.090;17.026;2023-04-10T22:51:09;5.20;99.90
66920;DHT22;53831;52.090;17.026;2023-04-10T22:56:29;5.20;99.90
66920;DHT22;53831;52.090;17.026;2023-04-10T23:01:31;5.20;99.90
66920;DHT22;53831;52.090;17.026;2023-04-10T23:06:31;5.10;99.90
66920;DHT22;53831;52.090;17.026;2023-04-10T23:11:32;5.10;99.90
66920;DHT22;53831;52.090;17.026;2023-04-10T23:16:33;5.10;99.90
66920;DHT22;53831;52.090;17.026;2023-04-10T23:21:34;5.10;99.90
66920;DHT22;53831;52.090;17.026;2023-04-10T23:26:35;5.00;99.90
66920;DHT22;53831;52.090;17.026;2023-04-10T23:31:35;5.00;99.90
66920;DHT22;53831;52.090;17.026;2023-04-10T23:36:36;4.90;99.90
66920;DHT22;53831;52.090;17.026;2023-04-10T23:42:58;4.90;99.90
66920;DHT22;53831;52.090;17.026;2023-04-10T23:49:19;4.80;99.90
66920;DHT22;53831;52.090;17.026;2023-04-10T23:54:29;5.00;99.90
